Time;durP1;ratioP1;P1;durP2;ratioP2;P2;SDS_P1;SDS_P2;PMS_P1;PMS_P2;Temp;Humidity;BMP_temperature;BMP_pressure;BME280_temperature;BME280_humidity;BME280_pressure;Samples;Min_cycle;Max_cycle;Signal;HPM_P1;HPM_P2
2023/09/20 00:01:37;;;;;;;6.30;2.50;;;19.00;1.00;;;;;;5118018;28;20224;-86
2023/09/20 00:04:06;;;;;;;6.60;2.27;;;18.90;1.00;;;;;;5115650;28;20183;-84
2023/09/20 00:06:32;;;;;;;5.70;2.43;;;18.80;1.00;;;;;;5116163;28;20254;-80
2023/09/20 00:09:00;;;;;;;5.60;2.43;;;18.80;1.00;;;;;;5116503;28;20208;-82
2023/09/20 00:11:26;;;;;;;7.00;2.57;;;18.80;1.00;;;;;;5117902;28;20255;-82
2023/09/20 00:13:53;;;;;;;6.83;2.80;;;18.80;1.00;;;;;;5115462;28;20229;-86
2023/09/20 00:16:19;;;;;;;6.67;2.40;;;18.80;1.00;;;;;;5116101;28;20181;-85
2023/09/20 00:18:45;;;;;;;6.67;2.30;;;18.80;1.00;;;;;;5116752;28;20173;-87
2023/09/20 00:21:11;;;;;;;5.03;2.50;;;18.80;1.00;;;;;;5117036;28;20166;-82
2023/09/20 00:23:37;;;;;;;5.63;2.27;;;18.80;1.00;;;;;;5117892;28;20195;-82
2023/09/20 00:26:03;;;;;;;6.73;2.30;;;18.80;1.00;;;;;;5117322;28;20229;-88
2023/09/20 00:28:31;;;;;;;7.43;2.57;;;18.90;1.00;;;;;;5116962;28;20237;-85
2023/09/20 00:30:57;;;;;;;5.00;2.43;;;18.90;1.00;;;;;;5117126;28;20169;-84
2023/09/20 00:33:23;;;;;;;6.77;2.20;;;18.80;1.00;;;;;;5115889;28;20359;-83
2023/09/20 00:35:49;;;;;;;7.83;2.50;;;18.80;1.00;;;;;;5116876;28;20157;-85
2023/09/20 00:38:16;;;;;;;5.63;2.17;;;18.70;1.00;;;;;;5118032;28;20205;-85
2023/09/20 00:40:43;;;;;;;6.43;2.33;;;18.70;2.20;;;;;;5116068;28;20576;-85
2023/09/20 00:43:11;;;;;;;4.57;2.10;;;18.70;2.20;;;;;;5116958;28;20175;-87
2023/09/20 00:45:40;;;;;;;9.20;2.53;;;18.60;5.40;;;;;;5116447;28;20164;-80
2023/09/20 00:48:09;;;;;;;5.83;2.40;;;18.60;6.90;;;;;;5116927;28;20200;-80
2023/09/20 00:50:41;;;;;;;7.43;3.13;;;18.60;8.00;;;;;;5118780;28;20201;-82
2023/09/20 00:53:11;;;;;;;7.50;2.80;;;18.50;10.30;;;;;;5119217;28;20197;-85
2023/09/20 00:55:38;;;;;;;9.97;2.70;;;18.50;8.90;;;;;;5116382;28;20282;-86
2023/09/20 00:58:15;;;;;;;8.27;3.30;;;18.50;10.30;;;;;;5118656;28;20251;-85
2023/09/20 01:00:43;;;;;;;6.30;3.50;;;18.50;10.70;;;;;;5115751;28;20182;-81
2023/09/20 01:03:11;;;;;;;9.50;3.43;;;18.50;11.10;;;;;;5116599;28;20175;-85
2023/09/20 01:05:39;;;;;;;7.00;3.70;;;18.50;11.90;;;;;;5115940;28;20636;-84
2023/09/20 01:08:06;;;;;;;8.27;3.43;;;18.50;11.70;;;;;;5117249;28;20190;-86
2023/09/20 01:10:36;;;;;;;6.97;3.30;;;18.50;11.40;;;;;;5116220;28;20698;-82
2023/09/20 01:13:04;;;;;;;10.77;3.83;;;18.50;12.60;;;;;;5115541;28;20166;-85
2023/09/20 01:15:31;;;;;;;6.97;3.47;;;18.40;13.10;;;;;;5116961;28;20622;-85
2023/09/20 01:17:58;;;;;;;7.33;3.13;;;18.50;13.80;;;;;;5121046;28;20170;-84
2023/09/20 01:20:32;;;;;;;7.73;3.73;;;18.50;11.20;;;;;;5117936;28;20195;-81
2023/09/20 01:22:59;;;;;;;7.53;3.43;;;18.40;12.00;;;;;;5118836;28;20165;-86
2023/09/20 01:25:27;;;;;;;6.27;3.13;;;18.50;12.70;;;;;;5119394;28;20171;-82
2023/09/20 01:27:55;;;;;;;7.70;3.83;;;18.40;13.50;;;;;;5118666;28;20702;-81
2023/09/20 01:30:25;;;;;;;6.97;3.50;;;18.40;15.20;;;;;;5116911;28;20176;-85
2023/09/20 01:32:54;;;;;;;9.17;3.53;;;18.40;15.80;;;;;;5117510;28;20205;-80
2023/09/20 01:35:22;;;;;;;6.67;3.17;;;18.40;16.10;;;;;;5116957;28;20190;-80
2023/09/20 01:37:49;;;;;;;5.37;3.07;;;18.40;16.20;;;;;;5120948;28;20169;-82
2023/09/20 01:40:15;;;;;;;7.00;3.17;;;18.30;18.00;;;;;;5118215;28;20651;-85
2023/09/20 01:42:50;;;;;;;6.00;2.80;;;18.20;18.40;;;;;;5119217;28;20180;-83
2023/09/20 01:45:20;;;;;;;6.67;3.43;;;18.30;21.40;;;;;;5121985;28;20233;-85
2023/09/20 01:47:54;;;;;;;7.07;3.50;;;18.30;19.80;;;;;;5126631;28;20269;-84
2023/09/20 01:50:24;;;;;;;6.53;3.43;;;18.30;20.50;;;;;;5128942;28;20174;-81
2023/09/20 01:52:54;;;;;;;6.27;2.73;;;18.20;22.70;;;;;;5131302;28;20202;-78
2023/09/20 01:55:21;;;;;;;8.53;3.20;;;18.20;22.70;;;;;;5125023;28;20174;-85
2023/09/20 01:57:51;;;;;;;7.90;2.80;;;18.20;23.90;;;;;;5122462;28;20170;-85
2023/09/20 02:00:22;;;;;;;10.03;3.20;;;18.20;21.90;;;;;;5120617;28;20234;-84
2023/09/20 02:02:51;;;;;;;6.33;3.00;;;18.30;20.40;;;;;;5123182;28;20182;-85
2023/09/20 02:05:17;;;;;;;6.53;3.13;;;18.20;20.40;;;;;;5120427;28;20178;-86
2023/09/20 02:07:48;;;;;;;7.80;3.60;;;18.10;23.40;;;;;;5130539;28;20172;-79
2023/09/20 02:10:16;;;;;;;7.23;3.30;;;18.10;23.60;;;;;;5131276;28;20651;-84
2023/09/20 02:12:53;;;;;;;6.30;3.30;;;18.10;25.00;;;;;;5121929;28;20163;-83
2023/09/20 02:15:31;;;;;;;7.77;3.27;;;18.20;23.50;;;;;;5121934;28;20312;-85
2023/09/20 02:17:58;;;;;;;8.27;3.30;;;18.10;25.30;;;;;;5122970;28;20616;-85
2023/09/20 02:20:25;;;;;;;9.30;3.57;;;18.10;24.50;;;;;;5119228;28;20174;-79
2023/09/20 02:22:53;;;;;;;10.33;4.10;;;18.10;25.50;;;;;;5120301;28;20244;-84
2023/09/20 02:25:20;;;;;;;7.70;3.67;;;18.10;27.00;;;;;;5118242;28;20184;-81
2023/09/20 02:27:49;;;;;;;7.70;3.70;;;18.00;29.00;;;;;;5120762;28;20156;-86
2023/09/20 02:30:16;;;;;;;9.93;4.03;;;18.00;31.30;;;;;;5128201;28;20158;-79
2023/09/20 02:32:43;;;;;;;7.17;3.50;;;18.00;29.90;;;;;;5138382;27;20183;-81
2023/09/20 02:35:09;;;;;;;7.20;3.47;;;18.00;31.50;;;;;;5130935;28;20204;-86
2023/09/20 02:37:37;;;;;;;8.33;3.30;;;18.00;29.40;;;;;;5122148;28;20163;-83
2023/09/20 02:40:11;;;;;;;6.57;3.23;;;18.00;33.50;;;;;;5121156;28;20163;-86
2023/09/20 02:43:08;;;;;;;7.43;3.20;;;18.00;33.00;;;;;;5119392;28;20174;-86
2023/09/20 02:45:36;;;;;;;7.97;3.33;;;18.00;35.90;;;;;;5119565;28;20167;-84
2023/09/20 02:48:06;;;;;;;8.73;3.10;;;18.00;35.80;;;;;;5120389;28;20171;-84
2023/09/20 02:50:32;;;;;;;8.83;3.37;;;17.90;36.40;;;;;;5120064;28;20163;-86
2023/09/20 02:52:58;;;;;;;7.97;3.00;;;17.90;38.20;;;;;;5119427;28;20212;-83
2023/09/20 02:55:24;;;;;;;6.17;3.10;;;17.90;39.20;;;;;;5122619;28;20634;-86
2023/09/20 02:57:52;;;;;;;7.77;3.20;;;17.80;43.80;;;;;;5136566;28;20158;-83
2023/09/20 03:00:24;;;;;;;9.23;2.97;;;17.80;44.30;;;;;;5138141;28;20160;-84
2023/09/20 03:02:52;;;;;;;9.47;2.97;;;17.80;45.10;;;;;;5133162;28;20152;-81
2023/09/20 03:05:27;;;;;;;8.27;2.97;;;17.90;43.50;;;;;;5132340;28;20172;-80
2023/09/20 03:07:54;;;;;;;7.40;2.50;;;17.90;42.90;;;;;;5126154;28;20184;-81
2023/09/20 03:10:23;;;;;;;7.03;2.63;;;17.90;42.90;;;;;;5129718;28;20196;-82
2023/09/20 03:12:51;;;;;;;8.40;3.57;;;17.90;41.60;;;;;;5132614;28;20152;-80
2023/09/20 03:15:23;;;;;;;7.03;2.77;;;17.90;40.80;;;;;;5131586;28;20574;-79
2023/09/20 03:17:56;;;;;;;6.20;2.90;;;17.90;42.20;;;;;;5128189;28;20165;-80
2023/09/20 03:20:25;;;;;;;9.90;3.00;;;17.80;42.60;;;;;;5127669;28;20190;-85
2023/09/20 03:23:00;;;;;;;5.43;2.77;;;17.80;43.30;;;;;;5120967;28;20166;-88
2023/09/20 03:25:28;;;;;;;8.00;3.10;;;17.80;43.30;;;;;;5120759;28;20179;-80
2023/09/20 03:27:57;;;;;;;8.13;3.30;;;17.80;44.20;;;;;;5121100;28;20165;-82
2023/09/20 03:30:22;;;;;;;7.90;3.10;;;17.80;44.40;;;;;;5119757;28;20157;-85
2023/09/20 03:32:49;;;;;;;6.77;2.93;;;17.80;46.00;;;;;;5118253;28;20517;-81
2023/09/20 03:35:19;;;;;;;8.13;3.20;;;17.80;45.40;;;;;;5117003;28;20216;-82
2023/09/20 03:37:47;;;;;;;5.37;2.73;;;17.80;45.60;;;;;;5117606;28;20209;-82
2023/09/20 03:40:19;;;;;;;7.40;2.77;;;17.70;46.80;;;;;;5117508;28;20188;-83
2023/09/20 03:42:46;;;;;;;8.07;3.07;;;17.70;48.90;;;;;;5118243;28;20167;-85
2023/09/20 03:45:15;;;;;;;4.67;2.47;;;17.80;48.60;;;;;;5118706;28;20260;-84
2023/09/20 03:47:42;;;;;;;6.47;2.40;;;17.80;48.60;;;;;;5117474;28;20223;-81
2023/09/20 03:50:12;;;;;;;7.10;2.63;;;17.80;50.00;;;;;;5117574;28;20279;-80
2023/09/20 03:52:39;;;;;;;10.07;3.23;;;17.70;49.60;;;;;;5117413;28;20187;-83
2023/09/20 03:55:06;;;;;;;7.40;2.83;;;17.70;49.30;;;;;;5118899;28;20202;-85
2023/09/20 03:57:33;;;;;;;4.90;2.20;;;17.70;51.70;;;;;;5117439;28;20163;-87
2023/09/20 03:59:59;;;;;;;7.97;2.67;;;17.80;48.80;;;;;;5117925;28;20170;-86
2023/09/20 04:02:26;;;;;;;4.13;2.13;;;17.80;49.70;;;;;;5115979;28;20172;-87
2023/09/20 04:04:55;;;;;;;5.30;2.40;;;17.80;51.60;;;;;;5116750;28;20171;-87
2023/09/20 04:07:26;;;;;;;7.13;2.70;;;17.70;51.60;;;;;;5117651;28;20162;-85
2023/09/20 04:09:53;;;;;;;6.77;2.60;;;17.70;55.30;;;;;;5116585;28;20161;-79
2023/09/20 04:12:19;;;;;;;5.67;2.77;;;17.70;55.80;;;;;;5116771;28;20593;-79
2023/09/20 04:14:45;;;;;;;8.60;3.00;;;17.80;54.60;;;;;;5117399;28;20246;-82
2023/09/20 04:17:11;;;;;;;7.03;2.53;;;17.70;57.00;;;;;;5118262;28;20185;-79
2023/09/20 04:19:40;;;;;;;6.10;2.60;;;17.70;58.90;;;;;;5116984;28;20203;-80
2023/09/20 04:22:06;;;;;;;7.20;3.10;;;17.70;59.30;;;;;;5116985;28;20171;-85
2023/09/20 04:24:35;;;;;;;8.67;2.90;;;17.60;62.40;;;;;;5119537;28;20953;-84
2023/09/20 04:27:02;;;;;;;5.50;2.77;;;17.60;62.00;;;;;;5121378;28;20191;-85
2023/09/20 04:29:29;;;;;;;7.50;2.60;;;17.70;62.30;;;;;;5117308;28;20181;-80
2023/09/20 04:31:55;;;;;;;7.37;2.83;;;17.70;60.30;;;;;;5116814;28;20251;-81
2023/09/20 04:34:22;;;;;;;8.53;2.87;;;17.60;61.50;;;;;;5115354;28;20205;-84
2023/09/20 04:36:48;;;;;;;5.70;2.60;;;17.60;65.00;;;;;;5116698;28;20174;-83
2023/09/20 04:39:15;;;;;;;5.40;2.80;;;17.60;67.50;;;;;;5115270;28;20176;-82
2023/09/20 04:41:41;;;;;;;7.23;2.70;;;17.60;66.50;;;;;;5116252;28;20183;-84
2023/09/20 04:44:07;;;;;;;4.77;2.67;;;17.60;66.90;;;;;;5115378;28;20185;-82
2023/09/20 04:46:35;;;;;;;7.13;2.70;;;17.60;67.20;;;;;;5116684;28;20574;-86
2023/09/20 04:49:00;;;;;;;7.07;3.00;;;17.60;68.80;;;;;;5116275;28;20180;-82
2023/09/20 04:51:26;;;;;;;7.10;2.57;;;17.60;70.40;;;;;;5119547;28;20264;-87
2023/09/20 04:53:52;;;;;;;5.97;2.63;;;17.60;70.00;;;;;;5120079;28;20206;-86
2023/09/20 04:56:18;;;;;;;6.27;2.70;;;17.60;70.00;;;;;;5119929;28;20226;-81
2023/09/20 04:58:43;;;;;;;6.87;2.50;;;17.60;71.00;;;;;;5120138;28;20182;-85
2023/09/20 05:01:11;;;;;;;7.37;3.20;;;17.50;73.10;;;;;;5118644;28;20183;-86
2023/09/20 05:03:37;;;;;;;8.17;2.43;;;17.50;73.40;;;;;;5126331;28;20590;-85
2023/09/20 05:06:02;;;;;;;6.30;2.50;;;17.50;75.70;;;;;;5128855;28;20173;-86
2023/09/20 05:08:28;;;;;;;7.87;2.60;;;17.50;76.20;;;;;;5130350;28;20194;-82
2023/09/20 05:10:55;;;;;;;5.27;2.87;;;17.50;75.10;;;;;;5127352;28;20165;-87
2023/09/20 05:13:22;;;;;;;7.20;2.80;;;17.50;73.70;;;;;;5126805;28;20262;-85
2023/09/20 05:15:50;;;;;;;5.90;2.60;;;17.50;75.40;;;;;;5121649;28;20180;-85
2023/09/20 05:18:16;;;;;;;5.20;2.57;;;17.50;76.20;;;;;;5120753;28;20241;-86
2023/09/20 05:20:45;;;;;;;4.73;2.53;;;17.50;77.10;;;;;;5122399;28;20154;-86
2023/09/20 05:23:11;;;;;;;6.60;2.70;;;17.60;74.70;;;;;;5121064;28;20174;-83
2023/09/20 05:25:37;;;;;;;6.07;2.80;;;17.50;75.70;;;;;;5124479;28;20176;-85
2023/09/20 05:28:04;;;;;;;4.30;2.50;;;17.50;76.60;;;;;;5125895;28;20201;-86
2023/09/20 05:30:31;;;;;;;5.97;2.80;;;17.50;78.10;;;;;;5132183;28;20184;-88
2023/09/20 05:32:59;;;;;;;4.43;2.77;;;17.50;77.60;;;;;;5135436;28;20166;-80
2023/09/20 05:35:26;;;;;;;6.47;2.23;;;17.50;78.10;;;;;;5125829;28;20199;-84
2023/09/20 05:37:51;;;;;;;9.20;2.87;;;17.40;79.60;;;;;;5121471;28;20162;-86
2023/09/20 05:40:34;;;;;;;5.57;2.80;;;17.40;77.50;;;;;;5119198;28;20169;-85
2023/09/20 05:43:03;;;;;;;7.00;2.60;;;17.50;77.70;;;;;;5123052;28;20163;-84
2023/09/20 05:45:30;;;;;;;7.37;2.93;;;17.40;77.60;;;;;;5121782;28;20200;-86
2023/09/20 05:47:57;;;;;;;9.33;2.93;;;17.40;78.40;;;;;;5121049;28;20170;-82
2023/09/20 05:50:23;;;;;;;6.83;3.10;;;17.50;78.10;;;;;;5118134;28;20620;-84
2023/09/20 05:52:52;;;;;;;5.43;2.67;;;17.50;76.10;;;;;;5118794;28;20189;-82
2023/09/20 05:55:18;;;;;;;6.83;2.43;;;17.50;76.00;;;;;;5134387;28;20194;-81
2023/09/20 05:57:44;;;;;;;5.90;2.77;;;17.50;76.10;;;;;;5134433;28;20240;-83
2023/09/20 06:00:22;;;;;;;5.93;3.20;;;17.50;77.00;;;;;;5121658;28;20183;-84
2023/09/20 06:02:50;;;;;;;6.83;2.93;;;17.60;73.50;;;;;;5117294;28;20175;-82
2023/09/20 06:05:24;;;;;;;5.90;2.60;;;17.60;73.40;;;;;;5119879;28;20222;-83
2023/09/20 06:07:57;;;;;;;9.93;4.13;;;17.60;73.40;;;;;;5117297;28;20186;-79
2023/09/20 06:10:23;;;;;;;12.30;5.80;;;17.70;72.80;;;;;;5115572;28;20172;-82
2023/09/20 06:12:53;;;;;;;7.77;3.30;;;17.70;72.80;;;;;;5098378;28;20179;-83
2023/09/20 06:15:19;;;;;;;7.13;3.70;;;17.70;72.40;;;;;;5095874;28;20619;-82
2023/09/20 06:17:47;;;;;;;8.60;3.00;;;17.70;71.80;;;;;;5094735;28;20189;-89
2023/09/20 06:20:19;;;;;;;6.90;2.90;;;17.70;71.80;;;;;;5098034;28;20247;-84
2023/09/20 06:22:46;;;;;;;7.03;3.17;;;17.80;70.70;;;;;;5092452;28;20509;-81
2023/09/20 06:25:12;;;;;;;5.47;2.73;;;17.80;70.30;;;;;;5098024;28;20186;-80
2023/09/20 06:27:40;;;;;;;5.07;2.93;;;17.90;68.70;;;;;;5110352;28;20241;-82
2023/09/20 06:30:07;;;;;;;6.53;3.10;;;17.90;65.60;;;;;;5107646;28;20178;-83
2023/09/20 06:32:37;;;;;;;5.87;2.80;;;18.00;65.10;;;;;;5104287;28;20173;-84
2023/09/20 06:35:07;;;;;;;7.03;3.00;;;18.00;60.80;;;;;;5105029;28;20300;-83
2023/09/20 06:37:34;;;;;;;6.13;2.83;;;18.10;62.60;;;;;;5111341;28;20191;-84
2023/09/20 06:40:00;;;;;;;6.23;2.70;;;18.10;59.60;;;;;;5105215;28;20172;-82
2023/09/20 06:42:30;;;;;;;11.53;3.03;;;18.10;59.10;;;;;;5096261;28;20167;-77
2023/09/20 06:44:56;;;;;;;5.57;2.63;;;18.30;59.40;;;;;;5096412;28;20689;-84
2023/09/20 06:47:22;;;;;;;5.80;2.70;;;18.30;53.50;;;;;;5096246;28;20169;-83
2023/09/20 06:49:48;;;;;;;6.63;2.47;;;18.30;54.00;;;;;;5096250;28;20208;-82
2023/09/20 06:52:14;;;;;;;4.80;2.63;;;18.30;55.00;;;;;;5105545;28;20170;-82
2023/09/20 06:54:40;;;;;;;5.50;2.70;;;18.30;53.60;;;;;;5098056;28;20564;-84
2023/09/20 06:57:05;;;;;;;7.07;2.70;;;18.30;53.20;;;;;;5102555;28;20168;-82
2023/09/20 06:59:37;;;;;;;5.77;2.77;;;18.50;50.30;;;;;;5098744;28;20181;-82
2023/09/20 07:02:03;;;;;;;4.60;2.10;;;18.50;50.10;;;;;;5096042;28;20202;-84
2023/09/20 07:04:31;;;;;;;5.13;2.63;;;18.50;48.40;;;;;;5096762;28;20181;-81
2023/09/20 07:06:57;;;;;;;4.20;2.33;;;18.60;47.10;;;;;;5101551;28;20689;-83
2023/09/20 07:09:23;;;;;;;5.33;2.73;;;18.60;45.00;;;;;;5098852;28;20175;-84
2023/09/20 07:11:53;;;;;;;7.47;2.77;;;18.80;42.00;;;;;;5109024;28;20543;-82
2023/09/20 07:14:23;;;;;;;5.73;2.60;;;18.90;36.90;;;;;;5107878;28;20622;-81
2023/09/20 07:16:52;;;;;;;5.93;2.63;;;18.90;34.00;;;;;;5110693;28;20177;-83
2023/09/20 07:19:23;;;;;;;6.60;2.83;;;18.90;32.70;;;;;;5100206;28;20683;-81
2023/09/20 07:21:50;;;;;;;5.90;2.87;;;19.00;32.60;;;;;;5097859;28;20267;-84
2023/09/20 07:24:16;;;;;;;5.33;2.80;;;19.10;28.70;;;;;;5098425;28;20489;-82
2023/09/20 07:26:44;;;;;;;7.23;2.70;;;19.20;23.00;;;;;;5094902;28;20179;-83
2023/09/20 07:29:14;;;;;;;5.53;2.73;;;19.20;22.70;;;;;;5098811;28;20179;-83
2023/09/20 07:31:40;;;;;;;8.03;3.43;;;19.20;23.30;;;;;;5097505;28;20187;-85
2023/09/20 07:34:12;;;;;;;9.73;2.77;;;19.20;23.30;;;;;;5093594;28;20207;-81
2023/09/20 07:36:49;;;;;;;6.80;2.67;;;19.20;23.30;;;;;;5096656;28;20233;-81
2023/09/20 07:39:20;;;;;;;7.03;2.40;;;19.20;21.80;;;;;;5097604;28;20178;-83
2023/09/20 07:41:46;;;;;;;8.23;2.60;;;19.20;22.60;;;;;;5114355;28;20259;-84
2023/09/20 07:44:13;;;;;;;6.43;2.00;;;19.20;21.50;;;;;;5119414;28;20269;-84
2023/09/20 07:46:40;;;;;;;7.47;2.33;;;19.20;21.10;;;;;;5112624;28;20203;-83
2023/09/20 07:49:09;;;;;;;5.93;2.33;;;19.30;20.90;;;;;;5117023;28;20200;-81
2023/09/20 07:51:36;;;;;;;7.27;2.70;;;19.30;21.00;;;;;;5123568;28;20178;-84
2023/09/20 07:54:05;;;;;;;6.23;2.47;;;19.20;22.00;;;;;;5116591;28;20275;-87
2023/09/20 07:56:32;;;;;;;6.40;2.57;;;19.20;22.10;;;;;;5101833;28;20231;-84
2023/09/20 07:58:58;;;;;;;7.83;2.17;;;19.20;21.70;;;;;;5113381;28;20168;-85
2023/09/20 08:01:29;;;;;;;6.63;2.40;;;19.20;22.90;;;;;;5117693;28;20182;-85
2023/09/20 08:03:58;;;;;;;8.47;2.27;;;19.20;21.60;;;;;;5100232;28;20171;-82
2023/09/20 08:06:33;;;;;;;6.10;2.00;;;19.30;20.60;;;;;;5119941;28;20526;-89
2023/09/20 08:08:59;;;;;;;8.20;2.30;;;19.40;17.10;;;;;;5099106;28;20246;-86
2023/09/20 08:11:32;;;;;;;4.27;1.73;;;19.50;15.40;;;;;;5100219;28;20183;-85
2023/09/20 08:13:59;;;;;;;9.23;2.40;;;19.60;12.50;;;;;;5083481;28;20241;-84
2023/09/20 08:16:32;;;;;;;4.10;1.70;;;19.70;6.00;;;;;;5102762;28;20538;-86
2023/09/20 08:21:34;;;;;;;5.60;1.93;;;19.90;3.10;;;;;;5102077;28;20264;-85
2023/09/20 09:00:27;;;;;;;6.47;2.50;;;20.60;1.00;;;;;;5115069;28;20191;-81
2023/09/20 09:02:59;;;;;;;7.07;2.63;;;20.50;1.00;;;;;;5106643;28;20685;-82
2023/09/20 09:05:27;;;;;;;7.60;2.63;;;20.50;1.00;;;;;;5095165;28;20333;-84
2023/09/20 09:07:56;;;;;;;6.80;2.57;;;20.60;1.00;;;;;;5105421;28;20179;-86
2023/09/20 09:10:23;;;;;;;6.03;2.80;;;20.50;1.00;;;;;;5113316;28;20201;-84
2023/09/20 09:12:49;;;;;;;5.50;2.67;;;20.40;1.00;;;;;;5094783;28;20179;-84
2023/09/20 09:15:18;;;;;;;7.20;3.07;;;20.40;1.00;;;;;;5110238;28;20223;-83
2023/09/20 09:17:49;;;;;;;6.17;2.97;;;20.40;1.00;;;;;;5095581;28;20172;-83
2023/09/20 09:20:18;;;;;;;5.77;2.63;;;20.40;1.00;;;;;;5100406;28;20180;-85
2023/09/20 09:22:45;;;;;;;7.20;2.60;;;20.50;1.00;;;;;;5101182;28;20174;-82
2023/09/20 09:25:16;;;;;;;6.73;2.73;;;20.50;1.00;;;;;;5095771;28;20172;-85
2023/09/20 09:27:44;;;;;;;8.07;2.70;;;20.60;1.00;;;;;;5110931;28;20308;-87
2023/09/20 09:30:14;;;;;;;6.50;2.47;;;20.70;1.00;;;;;;5094142;28;20178;-85
2023/09/20 09:32:47;;;;;;;7.43;2.27;;;20.70;1.00;;;;;;5095474;28;20287;-84
2023/09/20 09:35:15;;;;;;;6.37;2.33;;;20.70;1.00;;;;;;5094169;28;20586;-84
2023/09/20 09:37:43;;;;;;;12.33;2.70;;;20.60;1.00;;;;;;5097514;28;20576;-86
2023/09/20 09:40:09;;;;;;;5.97;2.10;;;20.50;1.00;;;;;;5098632;28;20190;-84
2023/09/20 09:42:36;;;;;;;6.90;2.00;;;20.60;1.00;;;;;;5098231;28;20179;-86
2023/09/20 09:45:02;;;;;;;6.50;2.03;;;20.60;1.00;;;;;;5099702;28;20628;-85
2023/09/20 09:47:34;;;;;;;4.80;1.90;;;20.60;1.00;;;;;;5118355;28;20189;-83
2023/09/20 09:50:02;;;;;;;6.53;2.13;;;20.60;1.00;;;;;;5103990;28;20240;-82
2023/09/20 09:52:29;;;;;;;7.27;2.00;;;20.50;1.00;;;;;;5089587;28;20176;-83
2023/09/20 09:54:55;;;;;;;3.97;1.80;;;20.60;1.00;;;;;;5107199;28;20295;-83
2023/09/20 09:57:22;;;;;;;5.33;1.80;;;20.60;1.00;;;;;;5112140;28;20179;-82
2023/09/20 09:59:48;;;;;;;4.27;1.90;;;20.70;1.00;;;;;;5106165;28;20174;-82
2023/09/20 10:02:19;;;;;;;5.67;2.00;;;20.80;1.00;;;;;;5106786;28;20172;-84
2023/09/20 10:04:53;;;;;;;6.43;2.50;;;20.80;1.00;;;;;;5108921;28;20172;-84
2023/09/20 10:07:22;;;;;;;3.90;1.60;;;20.80;1.00;;;;;;5108829;28;20200;-82
2023/09/20 10:09:50;;;;;;;6.23;1.83;;;20.90;1.00;;;;;;5105481;28;20191;-83
2023/09/20 10:12:19;;;;;;;4.13;1.90;;;20.80;1.00;;;;;;5105681;28;20193;-81
2023/09/20 10:14:46;;;;;;;4.23;1.80;;;20.90;1.00;;;;;;5105282;28;20256;-83
2023/09/20 10:17:21;;;;;;;6.43;1.90;;;21.00;1.00;;;;;;5106238;28;20457;-83
2023/09/20 10:19:52;;;;;;;3.37;1.20;;;21.00;1.00;;;;;;5098397;28;20183;-84
2023/09/20 10:22:21;;;;;;;7.57;1.77;;;20.90;1.00;;;;;;5102692;28;20182;-83
2023/09/20 10:25:00;;;;;;;5.37;2.00;;;20.90;1.00;;;;;;5100300;28;20527;-83
2023/09/20 10:27:31;;;;;;;5.57;1.80;;;20.80;1.00;;;;;;5105441;28;20189;-83
2023/09/20 10:30:01;;;;;;;3.13;1.33;;;20.90;1.00;;;;;;5099861;28;20393;-84
2023/09/20 10:32:35;;;;;;;3.83;1.40;;;20.90;1.00;;;;;;5104660;28;20195;-83
2023/09/20 10:35:27;;;;;;;6.97;1.90;;;21.00;1.00;;;;;;5102785;28;20231;-83
2023/09/20 10:38:21;;;;;;;4.00;1.63;;;21.10;1.00;;;;;;5107419;28;20204;-83
2023/09/20 10:43:13;;;;;;;4.93;1.87;;;21.40;1.00;;;;;;5096845;28;20260;-83
2023/09/20 10:45:40;;;;;;;4.37;1.80;;;21.50;1.00;;;;;;5096424;28;20233;-84
2023/09/20 10:48:14;;;;;;;3.57;1.90;;;21.50;1.00;;;;;;5097310;28;20202;-84
2023/09/20 10:50:48;;;;;;;4.73;1.70;;;21.50;1.00;;;;;;5096102;28;20576;-83
2023/09/20 10:53:18;;;;;;;6.50;3.10;;;21.50;1.00;;;;;;5098466;28;20194;-84
2023/09/20 10:55:44;;;;;;;9.90;4.90;;;21.50;1.00;;;;;;5114335;28;20227;-82
2023/09/20 10:58:13;;;;;;;5.37;1.80;;;21.60;1.00;;;;;;5096847;28;20684;-83
2023/09/20 11:00:39;;;;;;;4.37;1.70;;;21.60;1.00;;;;;;5110908;28;20186;-85
2023/09/20 11:03:07;;;;;;;5.77;1.70;;;21.40;1.00;;;;;;5117939;28;20185;-83
2023/09/20 11:05:34;;;;;;;6.97;1.73;;;21.30;1.00;;;;;;5117799;28;20548;-86
2023/09/20 11:08:08;;;;;;;4.63;1.57;;;21.30;1.00;;;;;;5118568;28;20176;-81
2023/09/20 11:10:35;;;;;;;6.73;1.70;;;21.20;1.00;;;;;;5118889;28;20590;-84
2023/09/20 11:13:05;;;;;;;6.23;1.93;;;21.20;1.00;;;;;;5112606;28;20506;-85
2023/09/20 11:15:31;;;;;;;5.33;1.63;;;21.20;1.00;;;;;;5099015;28;20736;-83
2023/09/20 11:17:57;;;;;;;3.83;1.60;;;21.20;1.00;;;;;;5095460;28;20541;-83
2023/09/20 11:20:28;;;;;;;3.50;1.33;;;21.10;1.00;;;;;;5097087;28;20170;-83
2023/09/20 11:22:55;;;;;;;5.20;1.70;;;21.00;1.00;;;;;;5114292;28;20666;-81
2023/09/20 11:25:21;;;;;;;5.90;1.70;;;20.90;1.00;;;;;;5115689;28;20181;-83
2023/09/20 11:27:47;;;;;;;4.80;2.03;;;20.90;1.00;;;;;;5098966;28;20185;-85
2023/09/20 11:30:13;;;;;;;6.57;1.80;;;21.00;1.00;;;;;;5116005;28;20190;-84
2023/09/20 11:32:39;;;;;;;5.63;1.90;;;21.00;1.00;;;;;;5116018;28;20637;-84
2023/09/20 11:35:08;;;;;;;4.50;1.80;;;21.00;1.00;;;;;;5115109;28;20307;-85
2023/09/20 11:37:38;;;;;;;5.17;1.70;;;21.00;1.00;;;;;;5096632;28;20181;-84
2023/09/20 11:40:05;;;;;;;3.57;1.77;;;21.00;1.00;;;;;;5098406;28;20191;-84
2023/09/20 11:42:36;;;;;;;5.27;2.40;;;21.10;1.00;;;;;;5116068;28;20268;-83
2023/09/20 11:45:05;;;;;;;4.17;2.13;;;21.10;1.00;;;;;;5109206;28;20231;-84
2023/09/20 11:47:34;;;;;;;7.33;1.63;;;21.10;1.00;;;;;;5115770;28;20184;-84
2023/09/20 11:50:04;;;;;;;4.83;1.70;;;21.20;1.00;;;;;;5114789;28;20203;-83
2023/09/20 11:52:31;;;;;;;7.13;2.00;;;21.20;1.00;;;;;;5116157;28;20168;-83
2023/09/20 11:54:59;;;;;;;4.07;1.60;;;21.20;1.00;;;;;;5103245;28;20317;-83
2023/09/20 11:57:25;;;;;;;7.80;2.10;;;21.30;1.00;;;;;;5095923;28;20670;-82
2023/09/20 11:59:53;;;;;;;4.07;1.60;;;21.40;1.00;;;;;;5098437;28;20172;-83
2023/09/20 12:02:19;;;;;;;7.00;2.00;;;21.50;1.00;;;;;;5099007;28;20194;-84
2023/09/20 12:04:45;;;;;;;7.57;2.63;;;21.60;1.00;;;;;;5110096;28;20642;-84
2023/09/20 12:07:11;;;;;;;4.13;2.37;;;21.70;1.00;;;;;;5118514;28;20171;-84
2023/09/20 12:09:41;;;;;;;7.73;2.20;;;21.80;1.00;;;;;;5118504;28;20173;-88
2023/09/20 12:12:10;;;;;;;6.93;1.90;;;21.90;1.00;;;;;;5118038;28;20173;-84
2023/09/20 12:14:38;;;;;;;3.93;1.50;;;21.90;1.00;;;;;;5106711;28;20274;-84
2023/09/20 12:17:07;;;;;;;7.67;2.17;;;21.90;1.00;;;;;;5102592;28;20169;-88
2023/09/20 12:19:33;;;;;;;8.33;2.00;;;22.00;1.00;;;;;;5112135;28;20239;-83
2023/09/20 12:22:02;;;;;;;6.57;2.27;;;22.10;1.00;;;;;;5113743;28;20242;-84
2023/09/20 12:24:28;;;;;;;4.80;1.60;;;22.20;1.00;;;;;;5111520;28;20176;-85
2023/09/20 12:26:56;;;;;;;11.93;6.07;;;22.20;1.00;;;;;;5113517;28;20163;-84
2023/09/20 12:29:28;;;;;;;4.80;1.70;;;22.20;1.00;;;;;;5108674;28;20171;-84
2023/09/20 12:31:55;;;;;;;4.57;1.70;;;22.20;1.00;;;;;;5109509;28;20180;-84
2023/09/20 12:34:26;;;;;;;3.77;1.90;;;22.30;1.00;;;;;;5108444;28;20215;-83
2023/09/20 12:37:08;;;;;;;4.27;1.73;;;22.30;1.00;;;;;;5114433;28;20166;-83
2023/09/20 12:39:46;;;;;;;2.60;1.67;;;22.40;1.00;;;;;;5118167;28;20190;-82
2023/09/20 12:42:14;;;;;;;4.00;1.50;;;22.40;1.00;;;;;;5134345;28;20178;-83
2023/09/20 12:44:47;;;;;;;4.57;1.87;;;22.30;1.00;;;;;;5131891;28;20196;-84
2023/09/20 12:47:13;;;;;;;7.37;2.70;;;22.40;1.00;;;;;;5136250;28;20154;-82
2023/09/20 12:49:42;;;;;;;5.03;1.90;;;22.30;1.00;;;;;;5133924;28;20253;-82
2023/09/20 12:52:08;;;;;;;4.40;1.57;;;22.40;1.00;;;;;;5135887;28;20174;-86
2023/09/20 12:54:35;;;;;;;5.40;2.10;;;22.30;1.00;;;;;;5127834;28;20267;-85
2023/09/20 12:57:01;;;;;;;6.43;4.13;;;22.30;1.00;;;;;;5112617;28;20163;-82
2023/09/20 12:59:30;;;;;;;4.60;2.47;;;22.40;1.00;;;;;;5086561;28;20174;-86
2023/09/20 13:02:00;;;;;;;5.47;3.10;;;22.40;1.00;;;;;;5102083;28;20168;-86
2023/09/20 13:04:27;;;;;;;6.17;3.27;;;22.50;1.00;;;;;;5081171;28;20175;-82
2023/09/20 13:06:55;;;;;;;7.27;3.33;;;22.50;1.00;;;;;;5096877;28;20192;-86
2023/09/20 13:09:24;;;;;;;10.27;6.93;;;22.60;1.00;;;;;;5098620;28;20171;-86
2023/09/20 13:11:51;;;;;;;8.53;5.67;;;22.60;1.00;;;;;;5100720;28;20558;-86
2023/09/20 13:14:19;;;;;;;7.47;4.80;;;22.80;1.00;;;;;;5099013;28;20211;-84
2023/09/20 13:16:49;;;;;;;7.37;4.83;;;22.80;1.00;;;;;;5099766;28;20167;-84
2023/09/20 13:19:15;;;;;;;6.23;2.80;;;22.80;1.00;;;;;;5081675;28;20183;-85
2023/09/20 13:21:43;;;;;;;5.30;2.60;;;22.90;99.90;;;;;;5100031;28;20186;-84
2023/09/20 13:24:19;;;;;;;5.80;2.20;;;23.00;99.90;;;;;;5101875;28;20155;-85
2023/09/20 13:26:44;;;;;;;6.10;2.47;;;22.90;99.90;;;;;;5100136;28;20173;-86
2023/09/20 13:29:13;;;;;;;7.30;2.30;;;22.90;99.90;;;;;;5101738;28;20602;-84
2023/09/20 13:31:40;;;;;;;4.50;2.93;;;22.90;99.90;;;;;;5102152;28;20171;-84
2023/09/20 13:34:15;;;;;;;5.73;2.20;;;22.80;99.90;;;;;;5097792;28;20260;-86
2023/09/20 13:36:44;;;;;;;4.43;2.30;;;22.90;99.90;;;;;;5099061;28;20186;-85
2023/09/20 13:39:10;;;;;;;10.33;2.00;;;22.80;99.90;;;;;;5102224;28;20171;-86